createdAt,value
2022-11-24T00:01:12.049Z,24.75
2022-11-24T00:03:38.997Z,29.35
2022-11-24T00:06:08.081Z,25.13
2022-11-24T00:08:38.876Z,16.65
2022-11-24T00:11:11.438Z,29.05
2022-11-24T00:13:41.437Z,21.30
2022-11-24T00:16:11.480Z,27.67
2022-11-24T00:18:40.220Z,27.17
2022-11-24T00:21:07.457Z,23.33
2022-11-24T00:23:34.841Z,28.60
2022-11-24T00:26:10.106Z,25.02
2022-11-24T00:28:37.660Z,31.90
2022-11-24T00:31:06.027Z,24.20
2022-11-24T00:33:32.934Z,22.05
2022-11-24T00:36:00.625Z,22.75
2022-11-24T00:38:27.664Z,24.70
2022-11-24T00:40:54.386Z,19.25
2022-11-24T00:43:21.126Z,18.80
2022-11-24T00:45:47.961Z,19.63
2022-11-24T00:48:14.980Z,23.75
2022-11-24T00:50:41.844Z,18.05
2022-11-24T00:53:08.617Z,26.95
2022-11-24T00:55:35.448Z,23.90
2022-11-24T00:58:02.137Z,18.42
2022-11-24T01:00:28.905Z,16.63
2022-11-24T01:02:55.667Z,26.20
2022-11-24T01:05:22.375Z,17.20
2022-11-24T01:07:49.228Z,20.52
2022-11-24T01:10:16.333Z,21.27
2022-11-24T01:12:43.186Z,25.92
2022-11-24T01:15:09.981Z,16.65
2022-11-24T01:17:36.703Z,17.42
2022-11-24T01:20:04.713Z,28.42
2022-11-24T01:22:31.555Z,18.05
2022-11-24T01:24:58.241Z,19.70
2022-11-24T01:27:25.016Z,20.17
2022-11-24T01:29:51.764Z,29.80
2022-11-24T01:32:18.482Z,21.75
2022-11-24T01:34:45.195Z,29.60
2022-11-24T01:37:11.926Z,26.80
2022-11-24T01:39:38.645Z,21.27
2022-11-24T01:42:05.427Z,14.75
2022-11-24T01:44:32.416Z,15.88
2022-11-24T01:47:04.949Z,21.30
2022-11-24T01:49:43.301Z,21.45
2022-11-24T01:52:18.962Z,20.60
2022-11-24T01:54:56.258Z,28.58
2022-11-24T01:57:30.449Z,21.63
2022-11-24T02:00:02.023Z,22.52
2022-11-24T02:02:30.035Z,17.80
2022-11-24T02:05:05.493Z,24.50
2022-11-24T02:07:33.539Z,26.92
2022-11-24T02:10:06.182Z,25.63
2022-11-24T02:12:33.518Z,24.58
2022-11-24T02:15:00.366Z,24.92
2022-11-24T02:17:27.123Z,24.40
2022-11-24T02:20:04.157Z,23.60
2022-11-24T02:23:24.742Z,21.98
2022-11-24T02:26:06.291Z,24.95
2022-11-24T02:28:33.492Z,19.33
2022-11-24T02:31:01.967Z,28.30
2022-11-24T02:33:29.623Z,15.68
2022-11-24T02:35:56.378Z,25.45
2022-11-24T02:38:33.576Z,24.77
2022-11-24T02:41:07.480Z,27.17
2022-11-24T02:43:47.696Z,24.10
2022-11-24T02:46:14.534Z,30.75
2022-11-24T02:48:41.440Z,16.27
2022-11-24T02:51:08.191Z,20.42
2022-11-24T02:53:35.321Z,29.67
2022-11-24T02:56:02.086Z,22.05
2022-11-24T02:58:28.848Z,28.42
2022-11-24T03:00:57.228Z,21.75
2022-11-24T03:03:24.782Z,38.10
2022-11-24T03:05:51.524Z,22.42
2022-11-24T03:08:18.282Z,21.80
2022-11-24T03:10:45.396Z,29.30
2022-11-24T03:13:12.301Z,20.77
2022-11-24T03:15:38.995Z,26.52
2022-11-24T03:18:06.035Z,27.67
2022-11-24T03:20:33.368Z,17.58
2022-11-24T03:23:00.185Z,18.63
2022-11-24T03:25:26.904Z,25.27
2022-11-24T03:27:55.486Z,23.33
2022-11-24T03:30:22.293Z,31.52
2022-11-24T03:32:51.780Z,29.98
2022-11-24T03:35:18.967Z,23.23
2022-11-24T03:37:45.660Z,28.30
2022-11-24T03:40:12.560Z,25.90
2022-11-24T03:42:40.708Z,26.70
2022-11-24T03:45:44.696Z,24.75
2022-11-24T03:47:54.896Z,31.30
2022-11-24T03:50:21.602Z,21.02
2022-11-24T03:52:48.353Z,29.48
2022-11-24T03:55:15.180Z,25.20
2022-11-24T03:57:41.903Z,29.05
2022-11-24T04:00:09.664Z,23.20
2022-11-24T04:02:36.447Z,27.60
2022-11-24T04:05:03.277Z,29.70
2022-11-24T04:07:30.009Z,22.75
2022-11-24T04:09:56.785Z,32.20
2022-11-24T04:12:42.154Z,23.23
2022-11-24T04:15:09.162Z,31.17
2022-11-24T04:17:35.856Z,27.65
2022-11-24T04:20:02.760Z,34.40
2022-11-24T04:22:29.471Z,25.02
2022-11-24T04:24:56.229Z,38.45
2022-11-24T04:27:23.071Z,22.92
2022-11-24T04:29:50.944Z,31.85
2022-11-24T04:32:18.186Z,31.58
2022-11-24T04:34:44.952Z,22.45
2022-11-24T04:37:11.667Z,28.33
2022-11-24T04:39:38.423Z,28.73
2022-11-24T04:42:05.789Z,22.17
2022-11-24T04:44:32.860Z,25.48
2022-11-24T04:47:00.996Z,29.35
2022-11-24T04:49:27.851Z,25.83
2022-11-24T04:51:54.573Z,28.60
2022-11-24T04:54:21.294Z,33.80
2022-11-24T04:56:51.953Z,32.38
2022-11-24T04:59:19.314Z,31.30
2022-11-24T05:01:47.337Z,24.95
2022-11-24T05:04:15.633Z,25.73
2022-11-24T05:06:42.438Z,24.67
2022-11-24T05:09:13.806Z,26.85
2022-11-24T05:11:43.121Z,35.30
2022-11-24T05:14:10.160Z,23.92
2022-11-24T05:16:37.772Z,28.98
2022-11-24T05:19:04.757Z,31.48
2022-11-24T05:21:31.572Z,21.65
2022-11-24T05:23:58.355Z,26.58
2022-11-24T05:26:26.305Z,21.85
2022-11-24T05:28:53.452Z,32.13
2022-11-24T05:31:20.291Z,24.52
2022-11-24T05:33:47.116Z,31.70
2022-11-24T05:36:33.853Z,26.83
2022-11-24T05:39:00.660Z,18.05
2022-11-24T05:41:27.401Z,28.10
2022-11-24T05:43:54.166Z,17.30
2022-11-24T05:46:20.969Z,27.83
2022-11-24T05:48:47.688Z,32.33
2022-11-24T05:51:14.516Z,22.25
2022-11-24T05:53:41.259Z,25.23
2022-11-24T05:56:08.283Z,27.73
2022-11-24T05:58:35.016Z,25.30
2022-11-24T06:01:06.232Z,25.30
2022-11-24T06:03:32.981Z,25.20
2022-11-24T06:05:59.821Z,22.73
2022-11-24T06:08:30.844Z,26.25
2022-11-24T06:11:17.139Z,33.25
2022-11-24T06:13:45.491Z,32.72
2022-11-24T06:16:13.077Z,25.45
2022-11-24T06:18:40.163Z,23.02
2022-11-24T06:21:11.796Z,22.35
2022-11-24T06:23:39.439Z,29.20
2022-11-24T06:26:06.647Z,34.65
2022-11-24T06:28:33.436Z,33.30
2022-11-24T06:31:04.238Z,24.80
2022-11-24T06:33:33.288Z,21.65
2022-11-24T06:36:08.117Z,18.33
2022-11-24T06:38:36.745Z,14.57
2022-11-24T06:41:14.852Z,18.90
2022-11-24T06:43:41.667Z,18.75
2022-11-24T06:46:08.679Z,12.20
2022-11-24T06:48:35.449Z,16.08
2022-11-24T06:51:04.964Z,17.10
2022-11-24T06:53:37.959Z,19.70
2022-11-24T06:58:44.186Z,13.68
2022-11-24T07:01:15.991Z,12.95
2022-11-24T07:03:42.733Z,16.65
2022-11-24T07:06:09.464Z,14.68
2022-11-24T07:08:36.373Z,18.90
2022-11-24T07:11:07.584Z,14.18
2022-11-24T07:13:34.643Z,12.35
2022-11-24T07:16:13.712Z,14.68
2022-11-24T07:18:40.604Z,12.85
2022-11-24T07:21:08.093Z,14.90
2022-11-24T07:23:34.817Z,11.35
2022-11-24T07:26:07.057Z,11.18
2022-11-24T07:28:34.708Z,17.70
2022-11-24T07:31:06.765Z,17.05
2022-11-24T07:33:33.683Z,15.87
2022-11-24T07:36:01.103Z,12.00
2022-11-24T07:38:30.260Z,7.93
2022-11-24T07:41:04.837Z,13.80
2022-11-24T07:43:33.176Z,14.52
2022-11-24T07:46:00.308Z,10.00
2022-11-24T07:48:27.169Z,16.65
2022-11-24T07:50:56.141Z,15.40
2022-11-24T07:53:23.224Z,10.88
2022-11-24T07:56:00.841Z,13.75
2022-11-24T07:58:32.684Z,16.88
2022-11-24T08:01:00.241Z,13.27
2022-11-24T08:03:27.113Z,9.27
2022-11-24T08:08:49.956Z,9.82
2022-11-24T08:11:18.039Z,13.52
2022-11-24T08:13:45.282Z,10.07
2022-11-24T08:16:15.082Z,12.98
2022-11-24T08:18:42.707Z,12.38
2022-11-24T08:21:13.600Z,14.38
2022-11-24T08:23:40.811Z,13.27
2022-11-24T08:26:10.751Z,12.15
2022-11-24T08:28:38.218Z,10.75
2022-11-24T08:31:10.204Z,9.65
2022-11-24T08:33:37.159Z,9.20
2022-11-24T08:36:05.557Z,6.30
2022-11-24T08:38:32.501Z,9.15
2022-11-24T08:41:04.323Z,5.55
2022-11-24T08:43:31.455Z,8.52
2022-11-24T08:46:10.905Z,6.63
2022-11-24T08:48:38.263Z,10.60
2022-11-24T08:51:14.184Z,9.85
2022-11-24T08:53:42.459Z,7.75
2022-11-24T08:56:10.451Z,8.73
2022-11-24T08:58:38.173Z,10.15
2022-11-24T09:01:14.503Z,9.13
2022-11-24T09:03:48.519Z,9.50
2022-11-24T09:06:25.172Z,14.27
2022-11-24T09:08:55.769Z,11.57
2022-11-24T09:11:23.643Z,10.68
2022-11-24T09:13:51.091Z,5.22
2022-11-24T09:16:21.115Z,9.05
2022-11-24T09:18:48.619Z,13.73
2022-11-24T09:21:21.218Z,12.32
2022-11-24T09:23:50.411Z,10.90
2022-11-24T09:26:29.046Z,13.13
2022-11-24T09:28:57.257Z,8.30
2022-11-24T09:31:30.441Z,12.75
2022-11-24T09:33:57.866Z,15.90
2022-11-24T09:36:25.098Z,12.93
2022-11-24T09:38:52.180Z,12.15
2022-11-24T09:41:37.488Z,11.02
2022-11-24T09:44:04.192Z,10.23
2022-11-24T09:46:46.704Z,12.02
2022-11-24T09:49:18.863Z,12.43
2022-11-24T09:51:48.527Z,9.03
2022-11-24T09:54:20.806Z,12.25
2022-11-24T09:56:48.236Z,18.13
2022-11-24T09:59:23.304Z,17.48
2022-11-24T10:01:51.570Z,15.63
2022-11-24T10:04:34.130Z,14.60
2022-11-24T10:07:21.235Z,10.77
2022-11-24T10:10:11.915Z,12.30
2022-11-24T10:12:53.991Z,12.95
2022-11-24T10:15:58.564Z,13.82
2022-11-24T10:18:25.356Z,11.25
2022-11-24T10:21:18.812Z,11.07
2022-11-24T10:26:44.068Z,15.50
2022-11-24T10:29:16.813Z,14.73
2022-11-24T10:31:45.838Z,16.80
2022-11-24T10:34:24.577Z,18.10
2022-11-24T10:36:55.169Z,17.88
2022-11-24T10:39:34.266Z,14.20
2022-11-24T10:42:06.308Z,12.00
2022-11-24T10:44:33.602Z,15.02
2022-11-24T10:47:00.699Z,12.50
2022-11-24T10:49:32.263Z,13.00
2022-11-24T10:52:08.397Z,16.05
2022-11-24T10:54:36.190Z,13.38
2022-11-24T10:57:03.351Z,8.75
2022-11-24T10:59:32.375Z,20.13
2022-11-24T11:01:59.987Z,16.20
2022-11-24T11:04:32.911Z,18.00
2022-11-24T11:07:21.602Z,15.75
2022-11-24T11:09:49.184Z,14.82
2022-11-24T11:12:44.449Z,13.10
2022-11-24T11:15:31.428Z,13.45
2022-11-24T11:18:01.002Z,13.65
2022-11-24T11:20:33.682Z,11.93
2022-11-24T11:23:15.070Z,18.42
2022-11-24T11:25:43.636Z,14.63
2022-11-24T11:28:28.623Z,27.50
2022-11-24T11:31:21.724Z,21.25
2022-11-24T11:34:06.220Z,15.10
2022-11-24T11:36:49.955Z,16.70
2022-11-24T11:39:24.041Z,19.23
2022-11-24T11:41:59.472Z,16.67
2022-11-24T11:44:32.741Z,11.95
2022-11-24T11:47:03.070Z,18.55
2022-11-24T11:49:29.882Z,13.93
2022-11-24T11:52:23.120Z,17.90
2022-11-24T11:55:23.219Z,14.85
2022-11-24T11:57:58.946Z,14.80
2022-11-24T12:00:26.018Z,20.92
2022-11-24T12:03:13.981Z,19.83
2022-11-24T12:06:21.043Z,13.82
2022-11-24T12:09:18.198Z,16.13
2022-11-24T12:11:49.063Z,20.00
2022-11-24T12:15:09.017Z,20.35
2022-11-24T12:18:33.499Z,14.60
2022-11-24T12:21:16.430Z,17.75
2022-11-24T12:24:01.037Z,13.43
2022-11-24T12:26:59.712Z,16.15
2022-11-24T12:29:26.363Z,15.77
2022-11-24T12:32:25.221Z,12.32
2022-11-24T12:35:02.276Z,17.25
2022-11-24T12:38:08.192Z,18.98
2022-11-24T12:40:46.545Z,14.45
2022-11-24T12:43:39.510Z,13.65
2022-11-24T12:46:28.014Z,17.65
2022-11-24T12:49:33.905Z,17.75
2022-11-24T12:52:12.473Z,16.80
2022-11-24T12:54:40.872Z,14.82
2022-11-24T12:57:17.573Z,19.08
2022-11-24T13:00:14.928Z,16.10
2022-11-24T13:03:04.525Z,14.90
2022-11-24T13:05:53.696Z,12.32
2022-11-24T13:08:21.232Z,12.95
2022-11-24T13:10:57.425Z,17.58
2022-11-24T13:13:35.497Z,17.52
2022-11-24T13:16:35.321Z,21.15
2022-11-24T13:19:02.638Z,13.77
2022-11-24T13:21:42.862Z,16.85
2022-11-24T13:24:19.907Z,18.35
2022-11-24T13:26:49.947Z,13.10
2022-11-24T13:29:38.234Z,16.27
2022-11-24T13:32:04.884Z,18.70
2022-11-24T13:34:40.752Z,12.95
2022-11-24T13:37:31.485Z,22.27
2022-11-24T13:40:22.693Z,12.60
2022-11-24T13:42:58.058Z,16.15
2022-11-24T13:45:40.346Z,10.75
2022-11-24T13:48:19.640Z,20.90
2022-11-24T13:50:56.158Z,15.60
2022-11-24T13:53:34.691Z,15.35
2022-11-24T13:56:13.691Z,21.48
2022-11-24T13:58:44.866Z,14.88
2022-11-24T14:01:23.443Z,13.00
2022-11-24T14:04:28.035Z,12.18
2022-11-24T14:06:57.677Z,16.55
2022-11-24T14:09:34.193Z,14.30
2022-11-24T14:12:20.602Z,17.48
2022-11-24T14:14:52.463Z,16.20
2022-11-24T14:17:24.152Z,15.75
2022-11-24T14:19:55.449Z,13.27
2022-11-24T14:22:31.888Z,14.30
2022-11-24T14:25:00.811Z,14.98
2022-11-24T14:27:39.026Z,16.40
2022-11-24T14:30:13.370Z,9.65
2022-11-24T14:32:40.562Z,14.18
2022-11-24T14:35:28.932Z,14.43
2022-11-24T14:37:56.147Z,16.25
2022-11-24T14:40:49.060Z,13.50
2022-11-24T14:43:26.390Z,14.75
2022-11-24T14:46:02.224Z,12.35
2022-11-24T14:48:37.240Z,17.10
2022-11-24T14:51:20.952Z,16.02
2022-11-24T14:53:52.719Z,12.77
2022-11-24T14:56:23.959Z,17.58
2022-11-24T14:58:50.836Z,17.67
2022-11-24T15:01:29.717Z,21.15
2022-11-24T15:04:32.376Z,15.45
2022-11-24T15:07:11.090Z,18.50
2022-11-24T15:09:49.502Z,18.23
2022-11-24T15:12:34.162Z,11.80
2022-11-24T15:15:05.173Z,15.38
2022-11-24T15:17:32.426Z,15.55
2022-11-24T15:20:22.395Z,14.25
2022-11-24T15:22:52.295Z,16.83
2022-11-24T15:25:31.302Z,19.60
2022-11-24T15:27:58.387Z,18.42
2022-11-24T15:30:25.516Z,16.40
2022-11-24T15:32:59.207Z,17.27
2022-11-24T15:35:29.868Z,15.02
2022-11-24T15:37:56.679Z,20.00
2022-11-24T15:40:23.562Z,20.67
2022-11-24T15:42:53.203Z,19.17
2022-11-24T15:45:21.335Z,17.75
2022-11-24T15:47:48.176Z,17.00
2022-11-24T15:50:15.734Z,15.82
2022-11-24T15:52:44.465Z,21.42
2022-11-24T15:55:22.029Z,23.77
2022-11-24T15:57:48.965Z,13.48
2022-11-24T16:00:23.712Z,13.48
2022-11-24T16:02:50.734Z,18.52
2022-11-24T16:05:17.818Z,15.05
2022-11-24T16:07:45.018Z,17.90
2022-11-24T16:10:30.021Z,16.08
2022-11-24T16:12:56.744Z,21.65
2022-11-24T16:15:23.552Z,17.90
2022-11-24T16:17:50.370Z,26.23
2022-11-24T16:20:17.340Z,14.38
2022-11-24T16:22:44.469Z,21.10
2022-11-24T16:25:11.537Z,17.83
2022-11-24T16:27:38.640Z,16.20
2022-11-24T16:30:06.248Z,27.10
2022-11-24T16:32:33.027Z,15.60
2022-11-24T16:34:59.940Z,17.05
2022-11-24T16:37:26.717Z,26.02
2022-11-24T16:39:53.451Z,18.30
2022-11-24T16:42:20.264Z,14.48
2022-11-24T16:44:46.973Z,13.00
2022-11-24T16:47:13.844Z,12.60
2022-11-24T16:49:41.818Z,13.57
2022-11-24T16:52:08.822Z,16.55
2022-11-24T16:54:35.750Z,16.50
2022-11-24T16:57:02.843Z,18.50
2022-11-24T16:59:29.664Z,16.50
2022-11-24T17:01:56.497Z,15.40
2022-11-24T17:04:23.348Z,17.33
2022-11-24T17:06:50.097Z,12.65
2022-11-24T17:09:17.701Z,20.80
2022-11-24T17:11:44.831Z,17.60
2022-11-24T17:14:12.379Z,10.65
2022-11-24T17:16:39.626Z,19.15
2022-11-24T17:19:06.401Z,16.40
2022-11-24T17:21:33.399Z,17.10
2022-11-24T17:24:05.273Z,17.33
2022-11-24T17:26:32.643Z,18.00
2022-11-24T17:28:59.451Z,18.75
2022-11-24T17:31:28.848Z,20.38
2022-11-24T17:33:57.378Z,24.55
2022-11-24T17:36:24.520Z,22.98
2022-11-24T17:38:51.629Z,16.92
2022-11-24T17:41:19.302Z,23.83
2022-11-24T17:43:55.491Z,16.45
2022-11-24T17:46:26.132Z,20.17
2022-11-24T17:48:53.043Z,18.17
2022-11-24T17:51:22.067Z,15.15
2022-11-24T17:53:50.559Z,21.88
2022-11-24T17:56:19.548Z,19.27
2022-11-24T17:58:46.321Z,18.45
2022-11-24T18:01:13.432Z,17.70
2022-11-24T18:03:41.201Z,21.27
2022-11-24T18:06:08.911Z,20.25
2022-11-24T18:08:41.392Z,19.20
2022-11-24T18:11:19.987Z,26.30
2022-11-24T18:13:58.537Z,18.08
2022-11-24T18:16:29.990Z,26.70
2022-11-24T18:19:14.064Z,20.48
2022-11-24T18:21:41.720Z,21.40
2022-11-24T18:24:10.399Z,17.48
2022-11-24T18:26:37.993Z,24.00
2022-11-24T18:29:04.898Z,15.48
2022-11-24T18:31:34.171Z,22.25
2022-11-24T18:34:02.214Z,17.20
2022-11-24T18:36:30.745Z,19.98
2022-11-24T18:39:02.262Z,15.15
2022-11-24T18:41:29.152Z,14.68
2022-11-24T18:43:55.873Z,19.50
2022-11-24T18:46:22.698Z,15.70
2022-11-24T18:48:51.968Z,22.25
2022-11-24T18:51:18.832Z,18.05
2022-11-24T18:53:46.286Z,20.58
2022-11-24T18:56:15.764Z,22.63
2022-11-24T18:58:43.346Z,16.85
2022-11-24T19:01:18.360Z,18.23
2022-11-24T19:03:49.051Z,25.50
2022-11-24T19:06:21.646Z,26.30
2022-11-24T19:08:49.188Z,23.98
2022-11-24T19:11:18.522Z,22.98
2022-11-24T19:13:45.393Z,27.65
2022-11-24T19:16:12.736Z,22.15
2022-11-24T19:18:39.758Z,23.30
2022-11-24T19:21:06.641Z,24.25
2022-11-24T19:23:33.420Z,35.13
2022-11-24T19:26:01.233Z,29.20
2022-11-24T19:28:28.007Z,29.02
2022-11-24T19:30:59.526Z,57.10
2022-11-24T19:33:26.290Z,69.57
2022-11-24T19:36:06.397Z,45.78
2022-11-24T19:38:34.897Z,34.78
2022-11-24T19:41:12.882Z,24.75
2022-11-24T19:43:40.842Z,24.02
2022-11-24T19:46:10.801Z,52.63
2022-11-24T19:48:43.255Z,31.67
2022-11-24T19:51:15.669Z,25.70
2022-11-24T19:53:43.235Z,27.48
2022-11-24T19:56:12.382Z,21.77
2022-11-24T19:58:39.598Z,26.40
2022-11-24T20:01:12.130Z,27.05
2022-11-24T20:03:40.610Z,31.20
2022-11-24T20:06:09.004Z,20.83
2022-11-24T20:08:37.717Z,23.40
2022-11-24T20:11:06.005Z,25.60
2022-11-24T20:13:34.897Z,26.08
2022-11-24T20:16:10.275Z,32.83
2022-11-24T20:18:41.909Z,32.25
2022-11-24T20:21:11.231Z,23.13
2022-11-24T20:23:38.713Z,26.40
2022-11-24T20:26:11.589Z,26.98
2022-11-24T20:28:38.727Z,25.20
2022-11-24T20:31:11.232Z,33.80
2022-11-24T20:33:38.945Z,26.02
2022-11-24T20:36:11.887Z,16.27
2022-11-24T20:41:15.806Z,33.88
2022-11-24T20:43:43.459Z,28.42
2022-11-24T20:46:13.780Z,26.13
2022-11-24T20:48:40.685Z,28.75
2022-11-24T20:51:10.588Z,30.20
2022-11-24T20:53:38.004Z,29.23
2022-11-24T20:56:13.772Z,26.85
2022-11-24T20:58:40.548Z,23.40
2022-11-24T21:01:18.741Z,27.13
2022-11-24T21:03:47.280Z,34.38
2022-11-24T21:06:14.627Z,28.45
2022-11-24T21:08:42.586Z,30.90
2022-11-24T21:11:11.513Z,30.88
2022-11-24T21:13:39.796Z,26.38
2022-11-24T21:16:16.933Z,27.13
2022-11-24T21:18:45.179Z,30.05
2022-11-24T21:21:12.925Z,39.72
2022-11-24T21:23:40.104Z,43.72
2022-11-24T21:26:13.013Z,32.95
2022-11-24T21:28:42.751Z,29.17
2022-11-24T21:31:17.501Z,23.30
2022-11-24T21:33:46.809Z,30.45
2022-11-24T21:36:15.849Z,29.42
2022-11-24T21:38:43.388Z,27.50
2022-11-24T21:41:11.815Z,32.45
2022-11-24T21:43:38.684Z,42.03
2022-11-24T21:46:10.753Z,30.67
2022-11-24T21:48:38.688Z,26.17
2022-11-24T21:51:07.630Z,25.63
2022-11-24T21:53:36.780Z,28.80
2022-11-24T21:56:15.132Z,31.33
2022-11-24T21:58:46.381Z,27.83
2022-11-24T22:01:13.786Z,29.63
2022-11-24T22:03:40.782Z,27.63
2022-11-24T22:06:07.942Z,21.25
2022-11-24T22:08:35.144Z,28.75
2022-11-24T22:11:04.248Z,25.10
2022-11-24T22:13:31.360Z,24.77
2022-11-24T22:16:07.002Z,20.98
2022-11-24T22:18:36.169Z,23.98
2022-11-24T22:21:03.922Z,27.33
2022-11-24T22:23:32.260Z,24.02
2022-11-24T22:26:14.771Z,23.65
2022-11-24T22:28:42.792Z,34.58
2022-11-24T22:31:15.366Z,28.20
2022-11-24T22:33:43.704Z,24.58
2022-11-24T22:36:11.586Z,18.02
2022-11-24T22:38:39.004Z,23.00
2022-11-24T22:41:16.878Z,24.80
2022-11-24T22:43:44.768Z,18.25
2022-11-24T22:46:14.391Z,19.05
2022-11-24T22:48:41.806Z,18.85
2022-11-24T22:51:14.037Z,22.98
2022-11-24T22:53:42.130Z,29.50
2022-11-24T22:56:10.927Z,20.38
2022-11-24T22:58:39.143Z,21.33
2022-11-24T23:01:07.792Z,26.77
2022-11-24T23:03:35.658Z,30.88
2022-11-24T23:06:13.162Z,22.75
2022-11-24T23:08:39.995Z,29.23
2022-11-24T23:11:09.602Z,26.98
2022-11-24T23:13:37.075Z,22.80
2022-11-24T23:16:09.780Z,22.92
2022-11-24T23:18:36.672Z,25.80
2022-11-24T23:21:14.548Z,27.52
2022-11-24T23:23:41.412Z,26.67
2022-11-24T23:26:10.966Z,27.40
2022-11-24T23:28:38.115Z,23.55
2022-11-24T23:31:07.293Z,21.08
2022-11-24T23:33:34.592Z,20.80
2022-11-24T23:36:07.331Z,18.33
2022-11-24T23:38:34.184Z,23.73
2022-11-24T23:41:04.525Z,17.27
2022-11-24T23:43:34.892Z,25.98
2022-11-24T23:46:10.080Z,20.55
2022-11-24T23:48:37.604Z,18.17
2022-11-24T23:51:10.325Z,19.67
2022-11-24T23:53:37.176Z,25.90
2022-11-24T23:56:04.941Z,26.85
2022-11-24T23:58:32.125Z,22.88
